Hovedside
METAR-TAF:

METAR-TAF

Lufthavner :

Halmstad lufthavn

Halmstad, Sverige

breddegrad: 56-41N, lengdegrad: 012-50E, høyde over havet: 30 m

Gjeldene værobservasjon

Denne rapporten ble laget for 44 minutter siden, klokken 04:20 UTC
Vind 10 kt fra Øst
Temperatur 11°C
Luftfuktighet 71%
Trykk 1010 hPa
Sikt 10 km eller mer

METAR: ESMT 250420Z AUTO 08010KT 9999 NCD 11/06 Q1010

Tid: 07:04 (05:04 UTC)

Varsel

Denne rapporten ble laget for 2 timer og 57 minutter siden, klokken 02:07 UTC
Varsel gyldig fra 25. klokken 03 UTC til 25. klokken 12 UTC
Vind 10 kt fra Øst-sørøst
Sikt 10 km eller mer
ingen skyer under 1500 m og ingen bygeskyer

TAF: ESMT 250207Z 2503/2512 11010KT CAVOK

Værobservasjoner og værvarsel for over 4000 flyplasser (METAR- og TAF-rapporter).

Tilgjengelige stasjoner er representert av de røde og gule prikkene på kartet.

Hold musepekeren over prikken for å se navnet på stasjonen.

Klikk så for å se værobservasjoner og -varsler.

For å forandre kartet kan du klikke på den grønne knappen med svart kryss for å zoome inn, på den grønne knappen med strek for å zoome ut, eller på de grønne pilene for å se tilstøtende kart.


METAR-TAF: